createdAt,value
2023-04-24T00:00:18.852Z,72119.41
2023-04-24T00:00:53.896Z,72125.41
2023-04-24T00:01:26.341Z,72123.41
2023-04-24T00:01:59.678Z,72121.41
2023-04-24T00:02:35.593Z,72119.41
2023-04-24T00:03:09.265Z,72119.41
2023-04-24T00:03:42.438Z,72123.41
2023-04-24T00:04:18.592Z,72121.41
2023-04-24T00:04:51.252Z,72115.44
2023-04-24T00:05:23.810Z,72115.44
2023-04-24T00:06:00.288Z,72123.41
2023-04-24T00:06:34.930Z,72119.41
2023-04-24T00:07:07.920Z,72123.41
2023-04-24T00:07:42.884Z,72121.41
2023-04-24T00:08:15.219Z,72119.41
2023-04-24T00:08:47.582Z,72123.41
2023-04-24T00:09:22.557Z,72123.41
2023-04-24T00:09:55.497Z,72123.41
2023-04-24T00:10:27.822Z,72119.41
2023-04-24T00:11:02.795Z,72127.41
2023-04-24T00:11:35.142Z,72125.41
2023-04-24T00:12:07.485Z,72121.41
2023-04-24T00:12:42.989Z,72127.41
2023-04-24T00:13:15.463Z,72137.38
2023-04-24T00:13:47.822Z,72125.41
2023-04-24T00:14:25.733Z,72121.41
2023-04-24T00:14:58.106Z,72125.41
2023-04-24T00:15:30.638Z,72127.41
2023-04-24T00:16:06.500Z,72127.41
2023-04-24T00:16:38.994Z,72121.41
2023-04-24T00:17:11.358Z,72125.41
2023-04-24T00:17:46.434Z,72127.41
2023-04-24T00:18:18.916Z,72119.41
2023-04-24T00:18:53.891Z,72119.41
2023-04-24T00:19:28.894Z,72121.41
2023-04-24T00:20:02.131Z,72123.41
2023-04-24T00:20:34.702Z,72123.41
2023-04-24T00:21:09.697Z,72123.41
2023-04-24T00:21:42.275Z,72123.41
2023-04-24T00:22:14.679Z,72123.41
2023-04-24T00:22:49.643Z,72125.41
2023-04-24T00:23:22.029Z,72127.41
2023-04-24T00:23:54.432Z,72127.41
2023-04-24T00:24:29.416Z,72125.41
2023-04-24T00:25:01.770Z,72135.38
2023-04-24T00:25:34.239Z,72123.41
2023-04-24T00:26:10.201Z,72123.41
2023-04-24T00:26:42.563Z,72115.44
2023-04-24T00:27:14.910Z,72125.41
2023-04-24T00:27:49.896Z,72119.41
2023-04-24T00:28:22.226Z,72121.41
2023-04-24T00:28:54.562Z,72119.41
2023-04-24T00:29:32.222Z,72119.41
2023-04-24T00:30:06.001Z,72121.41
2023-04-24T00:30:38.418Z,72125.41
2023-04-24T00:31:13.701Z,72119.41
2023-04-24T00:31:46.081Z,72133.38
2023-04-24T00:32:20.453Z,72129.41
2023-04-24T00:32:58.214Z,72123.41
2023-04-24T00:33:30.663Z,72127.41
2023-04-24T00:34:03.424Z,72123.41
2023-04-24T00:34:35.843Z,72135.38
2023-04-24T00:35:11.554Z,72137.38
2023-04-24T00:35:43.873Z,72131.38
2023-04-24T00:36:17.363Z,72133.38
2023-04-24T00:36:53.489Z,72131.38
2023-04-24T00:37:26.557Z,72135.38
2023-04-24T00:37:58.896Z,72127.41
2023-04-24T00:38:33.868Z,72135.38
2023-04-24T00:39:06.252Z,72121.41
2023-04-24T00:39:38.727Z,72123.41
2023-04-24T00:40:14.866Z,72131.38
2023-04-24T00:40:49.003Z,72125.41
2023-04-24T00:41:22.189Z,72123.41
2023-04-24T00:41:57.981Z,72123.41
2023-04-24T00:42:30.583Z,72129.41
2023-04-24T00:43:02.962Z,72129.41
2023-04-24T00:43:38.282Z,72123.41
2023-04-24T00:44:10.674Z,72127.41
2023-04-24T00:44:45.669Z,72123.41
2023-04-24T00:45:20.630Z,72123.41
2023-04-24T00:45:53.049Z,72119.41
2023-04-24T00:46:25.580Z,72123.41
2023-04-24T00:46:58.425Z,72119.41
2023-04-24T00:47:33.966Z,72119.41
2023-04-24T00:48:06.482Z,72125.41
2023-04-24T00:48:39.493Z,72119.41
2023-04-24T00:49:15.150Z,72119.41
2023-04-24T00:49:47.485Z,72123.41
2023-04-24T00:50:20.752Z,72119.41
2023-04-24T00:50:55.871Z,72119.41
2023-04-24T00:51:28.641Z,72121.41
2023-04-24T00:52:01.026Z,72119.41
2023-04-24T00:52:36.351Z,72119.41
2023-04-24T00:53:09.002Z,72111.44
2023-04-24T00:53:41.418Z,72117.41
2023-04-24T00:54:16.568Z,72119.41
2023-04-24T00:54:48.946Z,72123.41
2023-04-24T00:55:21.520Z,72123.41
2023-04-24T00:55:54.070Z,72123.41
2023-04-24T00:56:29.280Z,72115.44
2023-04-24T00:57:02.554Z,72113.44
2023-04-24T00:57:34.904Z,72119.41
2023-04-24T00:58:09.878Z,72125.41
2023-04-24T00:58:42.961Z,72119.41
2023-04-24T00:59:17.843Z,72125.41
2023-04-24T00:59:55.850Z,72119.41
2023-04-24T01:00:28.394Z,72119.41
2023-04-24T01:01:02.199Z,72123.41
2023-04-24T01:01:39.383Z,72123.41
2023-04-24T01:02:12.264Z,72123.41
2023-04-24T01:02:46.634Z,72127.41
2023-04-24T01:03:22.435Z,72123.41
2023-04-24T01:03:55.469Z,72123.41
2023-04-24T01:04:28.699Z,72119.41
2023-04-24T01:05:04.839Z,72123.41
2023-04-24T01:05:37.250Z,72111.44
2023-04-24T01:06:10.617Z,72121.41
2023-04-24T01:06:47.410Z,72123.41
2023-04-24T01:07:22.261Z,72119.41
2023-04-24T01:07:57.253Z,72115.44
2023-04-24T01:08:32.733Z,72123.41
2023-04-24T01:09:05.381Z,72117.41
2023-04-24T01:09:38.083Z,72119.41
2023-04-24T01:10:13.932Z,72111.44
2023-04-24T01:10:46.338Z,72113.44
2023-04-24T01:11:19.405Z,72119.41
2023-04-24T01:11:54.827Z,72115.44
2023-04-24T01:12:27.216Z,72119.41
2023-04-24T01:12:59.908Z,72119.41
2023-04-24T01:13:35.677Z,72117.41
2023-04-24T01:14:09.177Z,72119.41
2023-04-24T01:14:41.586Z,72115.44
2023-04-24T01:15:19.448Z,72119.41
2023-04-24T01:15:52.886Z,72113.44
2023-04-24T01:16:25.347Z,72123.41
2023-04-24T01:17:00.585Z,72121.41
2023-04-24T01:17:33.952Z,72119.41
2023-04-24T01:18:06.384Z,72115.44
2023-04-24T01:18:42.310Z,72127.41
2023-04-24T01:19:16.691Z,72119.41
2023-04-24T01:19:49.070Z,72123.41
2023-04-24T01:20:22.999Z,72123.41
2023-04-24T01:21:00.792Z,72119.41
2023-04-24T01:21:36.414Z,72123.41
2023-04-24T01:22:15.822Z,72121.41
2023-04-24T01:22:50.878Z,72117.41
2023-04-24T01:23:23.234Z,72117.41
2023-04-24T01:23:57.670Z,72115.44
2023-04-24T01:24:33.137Z,72115.44
2023-04-24T01:25:06.947Z,72119.41
2023-04-24T01:25:39.536Z,72117.41
2023-04-24T01:26:14.908Z,72117.41
2023-04-24T01:26:47.308Z,72115.44
2023-04-24T01:27:20.228Z,72119.41
2023-04-24T01:27:55.261Z,72119.41
2023-04-24T01:28:27.751Z,72119.41
2023-04-24T01:29:00.166Z,72117.41
2023-04-24T01:29:32.702Z,72115.44
2023-04-24T01:30:09.250Z,72115.44
2023-04-24T01:30:41.787Z,72111.44
2023-04-24T01:31:14.269Z,72117.41
2023-04-24T01:31:46.781Z,72107.44
2023-04-24T01:32:22.551Z,72113.44
2023-04-24T01:32:55.293Z,72105.44
2023-04-24T01:33:27.774Z,72111.44
2023-04-24T01:34:00.283Z,72109.44
2023-04-24T01:34:35.879Z,72115.44
2023-04-24T01:35:09.568Z,72107.44
2023-04-24T01:35:41.918Z,72113.44
2023-04-24T01:36:17.966Z,72111.44
2023-04-24T01:36:50.336Z,72107.44
2023-04-24T01:37:25.468Z,72109.44
2023-04-24T01:38:00.759Z,72111.44
2023-04-24T01:38:33.200Z,72107.44
2023-04-24T01:39:05.883Z,72109.44
2023-04-24T01:39:41.025Z,72105.44
2023-04-24T01:40:13.762Z,72103.44
2023-04-24T01:40:46.486Z,72099.47
2023-04-24T01:41:21.465Z,72107.44
2023-04-24T01:41:54.824Z,72107.44
2023-04-24T01:42:27.376Z,72103.44
2023-04-24T01:42:59.958Z,72105.44
2023-04-24T01:43:35.238Z,72091.47
2023-04-24T01:44:07.681Z,72103.44
2023-04-24T01:44:41.791Z,72099.47
2023-04-24T01:45:14.213Z,72099.47
2023-04-24T01:45:49.214Z,72095.47
2023-04-24T01:46:21.873Z,72097.47
2023-04-24T01:46:55.239Z,72099.47
2023-04-24T01:47:30.701Z,72091.47
2023-04-24T01:48:03.574Z,72099.47
2023-04-24T01:48:36.442Z,72095.47
2023-04-24T01:49:11.469Z,72099.47
2023-04-24T01:49:44.838Z,72101.44
2023-04-24T01:50:18.720Z,72099.47
2023-04-24T01:50:53.698Z,72099.47
2023-04-24T01:51:26.120Z,72095.47
2023-04-24T01:51:58.498Z,72097.47
2023-04-24T01:52:37.264Z,72099.47
2023-04-24T01:53:09.783Z,72095.47
2023-04-24T01:53:42.273Z,72091.47
2023-04-24T01:54:16.611Z,72099.47
2023-04-24T01:54:51.588Z,72099.47
2023-04-24T01:55:24.081Z,72095.47
2023-04-24T01:55:57.421Z,72099.47
2023-04-24T01:56:34.155Z,72091.47
2023-04-24T01:57:07.001Z,72101.44
2023-04-24T01:57:39.804Z,72101.44
2023-04-24T01:58:14.789Z,72105.44
2023-04-24T01:58:47.368Z,72099.47
2023-04-24T01:59:20.432Z,72095.47
2023-04-24T01:59:55.497Z,72103.44
2023-04-24T02:00:27.850Z,72099.47
2023-04-24T02:01:00.434Z,72095.47
2023-04-24T02:01:38.916Z,72099.47
2023-04-24T02:02:11.410Z,72107.44
2023-04-24T02:02:47.395Z,72103.44
2023-04-24T02:03:23.486Z,72107.44
2023-04-24T02:03:56.189Z,72109.44
2023-04-24T02:04:29.330Z,72109.44
2023-04-24T02:05:04.590Z,72115.44
2023-04-24T02:05:36.961Z,72103.44
2023-04-24T02:06:09.386Z,72105.44
2023-04-24T02:06:41.792Z,72107.44
2023-04-24T02:07:16.741Z,72115.44
2023-04-24T02:07:51.747Z,72111.44
2023-04-24T02:08:24.460Z,72115.44
2023-04-24T02:08:59.431Z,72113.44
2023-04-24T02:09:31.799Z,72105.44
2023-04-24T02:10:05.366Z,72109.44
2023-04-24T02:10:37.936Z,72115.44
2023-04-24T02:11:13.948Z,72111.44
2023-04-24T02:11:46.310Z,72111.44
2023-04-24T02:12:18.738Z,72107.44
2023-04-24T02:12:53.719Z,72117.41
2023-04-24T02:13:29.723Z,72113.44
2023-04-24T02:14:02.093Z,72109.44
2023-04-24T02:14:37.146Z,72111.44
2023-04-24T02:15:10.555Z,72103.44
2023-04-24T02:15:43.512Z,72111.44
2023-04-24T02:16:18.503Z,72109.44
2023-04-24T02:16:51.078Z,72115.44
2023-04-24T02:17:23.848Z,72111.44
2023-04-24T02:17:58.997Z,72115.44
2023-04-24T02:18:31.410Z,72111.44
2023-04-24T02:19:04.216Z,72109.44
2023-04-24T02:19:39.198Z,72111.44
2023-04-24T02:20:12.116Z,72119.41
2023-04-24T02:20:44.543Z,72115.44
2023-04-24T02:21:19.558Z,72115.44
2023-04-24T02:21:51.935Z,72107.44
2023-04-24T02:22:24.364Z,72117.41
2023-04-24T02:23:02.007Z,72115.44
2023-04-24T02:23:34.355Z,72119.41
2023-04-24T02:24:06.846Z,72111.44
2023-04-24T02:24:42.019Z,72113.44
2023-04-24T02:25:14.368Z,72119.41
2023-04-24T02:25:47.214Z,72115.44
2023-04-24T02:26:22.282Z,72115.44
2023-04-24T02:26:54.670Z,72115.44
2023-04-24T02:27:27.163Z,72117.41
2023-04-24T02:28:02.136Z,72115.44
2023-04-24T02:28:34.504Z,72119.41
2023-04-24T02:29:06.904Z,72119.41
2023-04-24T02:29:42.016Z,72115.44
2023-04-24T02:30:15.156Z,72119.41
2023-04-24T02:30:47.534Z,72117.41
2023-04-24T02:31:22.538Z,72115.44
2023-04-24T02:31:55.038Z,72115.44
2023-04-24T02:32:27.449Z,72121.41
2023-04-24T02:33:02.441Z,72119.41
2023-04-24T02:33:34.939Z,72121.41
2023-04-24T02:34:10.012Z,72115.44
2023-04-24T02:34:42.897Z,72123.41
2023-04-24T02:35:15.295Z,72123.41
2023-04-24T02:35:50.301Z,72119.41
2023-04-24T02:36:22.687Z,72123.41
2023-04-24T02:36:55.377Z,72117.41
2023-04-24T02:37:30.714Z,72111.44
2023-04-24T02:38:05.844Z,72115.44
2023-04-24T02:38:38.238Z,72115.44
2023-04-24T02:39:14.635Z,72123.41
2023-04-24T02:39:47.076Z,72125.41
2023-04-24T02:40:19.687Z,72115.44
2023-04-24T02:40:55.501Z,72123.41
2023-04-24T02:41:32.471Z,72123.41
2023-04-24T02:42:05.133Z,72127.41
2023-04-24T02:42:40.074Z,72123.41
2023-04-24T02:43:12.450Z,72123.41
2023-04-24T02:43:47.455Z,72127.41
2023-04-24T02:44:19.870Z,72131.38
2023-04-24T02:44:52.688Z,72119.41
2023-04-24T02:45:27.713Z,72135.38
2023-04-24T02:46:00.365Z,72127.41
2023-04-24T02:46:32.927Z,72125.41
2023-04-24T02:47:08.761Z,72129.41
2023-04-24T02:47:41.161Z,72127.41
2023-04-24T02:48:13.529Z,72127.41
2023-04-24T02:48:48.673Z,72123.41
2023-04-24T02:49:21.080Z,72129.41
2023-04-24T02:49:53.474Z,72127.41
2023-04-24T02:50:29.122Z,72119.41
2023-04-24T02:51:01.549Z,72127.41
2023-04-24T02:51:34.060Z,72123.41
2023-04-24T02:52:09.014Z,72127.41
2023-04-24T02:52:41.437Z,72121.41
2023-04-24T02:53:16.641Z,72123.41
2023-04-24T02:53:51.618Z,72115.44
2023-04-24T02:54:23.968Z,72127.41
2023-04-24T02:54:56.753Z,72123.41
2023-04-24T02:55:31.974Z,72119.41
2023-04-24T02:56:04.398Z,72123.41
2023-04-24T02:56:36.811Z,72125.41
2023-04-24T02:57:13.418Z,72119.41
2023-04-24T02:57:48.144Z,72123.41
2023-04-24T02:58:21.164Z,72123.41
2023-04-24T02:58:56.234Z,72123.41
2023-04-24T02:59:30.073Z,72119.41
2023-04-24T03:00:02.494Z,72123.41
2023-04-24T03:00:37.467Z,72119.41
2023-04-24T03:01:11.293Z,72123.41
2023-04-24T03:01:43.859Z,72115.44
2023-04-24T03:02:18.985Z,72111.44
2023-04-24T03:02:51.894Z,72111.44
2023-04-24T03:03:25.225Z,72115.44
2023-04-24T03:04:00.912Z,72113.44
2023-04-24T03:04:33.659Z,72117.41
2023-04-24T03:05:06.983Z,72119.41
2023-04-24T03:05:42.017Z,72111.44
2023-04-24T03:06:14.794Z,72119.41
2023-04-24T03:06:47.342Z,72115.44
2023-04-24T03:07:23.094Z,72111.44
2023-04-24T03:07:55.484Z,72111.44
2023-04-24T03:08:30.570Z,72115.44
2023-04-24T03:09:06.445Z,72109.44
2023-04-24T03:09:38.779Z,72109.44
2023-04-24T03:10:11.605Z,72107.44
2023-04-24T03:10:48.146Z,72111.44
2023-04-24T03:11:21.195Z,72111.44
2023-04-24T03:11:53.536Z,72111.44
2023-04-24T03:12:28.525Z,72111.44
2023-04-24T03:13:01.339Z,72107.44
2023-04-24T03:13:36.486Z,72115.44
2023-04-24T03:14:09.451Z,72109.44
2023-04-24T03:14:43.859Z,72109.44
2023-04-24T03:15:18.893Z,72103.44
2023-04-24T03:15:51.878Z,72107.44
2023-04-24T03:16:24.292Z,72105.44
2023-04-24T03:16:59.239Z,72109.44
2023-04-24T03:17:31.633Z,72103.44
2023-04-24T03:18:04.232Z,72101.44
2023-04-24T03:18:39.246Z,72107.44
2023-04-24T03:19:13.850Z,72105.44
2023-04-24T03:20:03.605Z,72107.44
2023-04-24T03:20:39.128Z,72101.44
2023-04-24T03:21:11.690Z,72107.44
2023-04-24T03:21:44.430Z,72099.47
2023-04-24T03:22:19.470Z,72105.44
2023-04-24T03:22:51.956Z,72111.44
2023-04-24T03:23:24.544Z,72109.44
2023-04-24T03:24:02.444Z,72105.44
2023-04-24T03:24:34.957Z,72109.44
2023-04-24T03:25:10.348Z,72111.44
2023-04-24T03:25:46.939Z,72109.44
2023-04-24T03:26:19.450Z,72111.44
2023-04-24T03:27:07.976Z,72107.44
2023-04-24T03:27:58.958Z,72105.44
2023-04-24T03:28:48.582Z,72113.44
2023-04-24T03:29:21.031Z,72103.44
2023-04-24T03:29:56.556Z,72107.44
2023-04-24T03:30:37.319Z,72103.44
2023-04-24T03:31:10.846Z,72103.44
2023-04-24T03:31:43.949Z,72107.44
2023-04-24T03:32:19.040Z,72103.44
2023-04-24T03:32:52.989Z,72101.44
2023-04-24T03:33:33.022Z,72099.47
2023-04-24T03:34:07.275Z,72103.44
2023-04-24T03:34:39.898Z,72113.44
2023-04-24T03:35:18.807Z,72111.44
2023-04-24T03:35:51.178Z,72103.44
2023-04-24T03:36:27.265Z,72103.44
2023-04-24T03:37:02.186Z,72107.44
2023-04-24T03:37:36.756Z,72105.44
2023-04-24T03:38:31.647Z,72107.44
2023-04-24T03:39:09.875Z,72109.44
2023-04-24T03:39:45.285Z,72111.44
2023-04-24T03:40:21.740Z,72113.44
2023-04-24T03:40:54.093Z,72109.44
2023-04-24T03:41:52.210Z,72111.44
2023-04-24T03:42:29.435Z,72111.44
2023-04-24T03:43:02.390Z,72117.41
2023-04-24T03:43:37.630Z,72111.44
2023-04-24T03:44:11.117Z,72113.44
2023-04-24T03:44:43.896Z,72107.44
2023-04-24T03:45:18.873Z,72117.41
2023-04-24T03:45:54.651Z,72115.44
2023-04-24T03:46:28.206Z,72111.44
2023-04-24T03:47:06.901Z,72113.44
2023-04-24T03:47:39.647Z,72111.44
2023-04-24T03:48:12.344Z,72107.44
2023-04-24T03:48:47.550Z,72109.44
2023-04-24T03:49:23.221Z,72111.44
2023-04-24T03:49:56.997Z,72111.44
2023-04-24T03:50:32.382Z,72111.44
2023-04-24T03:51:05.530Z,72111.44
2023-04-24T03:51:39.144Z,72107.44
2023-04-24T03:52:25.185Z,72115.44
2023-04-24T03:52:57.592Z,72111.44
2023-04-24T03:53:40.347Z,72111.44
2023-04-24T03:54:18.781Z,72115.44
2023-04-24T03:54:51.664Z,72111.44
2023-04-24T03:55:24.182Z,72109.44
2023-04-24T03:55:59.190Z,72113.44
2023-04-24T03:56:31.577Z,72113.44
2023-04-24T03:57:07.075Z,72117.41
2023-04-24T03:57:42.734Z,72111.44
2023-04-24T03:58:23.750Z,72111.44
2023-04-24T03:58:59.874Z,72107.44
2023-04-24T03:59:32.293Z,72111.44
2023-04-24T04:00:20.710Z,72111.44
2023-04-24T04:00:59.636Z,72107.44
2023-04-24T04:01:54.857Z,72113.44
2023-04-24T04:02:27.334Z,72119.41
2023-04-24T04:02:59.943Z,72125.41
2023-04-24T04:03:35.395Z,72119.41
2023-04-24T04:04:09.235Z,72111.44
2023-04-24T04:04:45.899Z,72115.44
2023-04-24T04:05:18.525Z,72117.41
2023-04-24T04:05:50.940Z,72113.44
2023-04-24T04:06:25.904Z,72115.44
2023-04-24T04:07:02.448Z,72115.44
2023-04-24T04:07:34.828Z,72113.44
2023-04-24T04:08:09.927Z,72113.44
2023-04-24T04:08:42.321Z,72107.44
2023-04-24T04:09:18.529Z,72107.44
2023-04-24T04:09:54.895Z,72107.44
2023-04-24T04:10:30.447Z,72111.44
2023-04-24T04:11:05.088Z,72107.44
2023-04-24T04:11:40.532Z,72111.44
2023-04-24T04:12:13.890Z,72111.44
2023-04-24T04:12:46.352Z,72111.44
2023-04-24T04:13:21.378Z,72115.44
2023-04-24T04:13:53.756Z,72115.44
2023-04-24T04:14:27.911Z,72107.44
2023-04-24T04:15:02.936Z,72111.44
2023-04-24T04:15:36.890Z,72113.44
2023-04-24T04:16:10.268Z,72111.44
2023-04-24T04:16:46.105Z,72115.44
2023-04-24T04:17:19.201Z,72119.41
2023-04-24T04:17:51.738Z,72115.44
2023-04-24T04:18:26.715Z,72115.44
2023-04-24T04:18:59.784Z,72115.44
2023-04-24T04:19:32.202Z,72119.41
2023-04-24T04:20:10.548Z,72117.41
2023-04-24T04:20:44.568Z,72119.41
2023-04-24T04:21:23.063Z,72119.41
2023-04-24T04:22:00.420Z,72115.44
2023-04-24T04:22:44.453Z,72119.41
2023-04-24T04:23:23.626Z,72119.41
2023-04-24T04:24:08.454Z,72121.41
2023-04-24T04:24:47.473Z,72119.41
2023-04-24T04:25:24.271Z,72123.41
2023-04-24T04:25:58.045Z,72115.44
2023-04-24T04:26:38.935Z,72123.41
2023-04-24T04:27:17.808Z,72115.44
2023-04-24T04:28:00.757Z,72119.41
2023-04-24T04:28:33.700Z,72119.41
2023-04-24T04:29:09.672Z,72123.41
2023-04-24T04:29:46.053Z,72115.44
2023-04-24T04:30:20.088Z,72127.41
2023-04-24T04:31:04.604Z,72123.41
2023-04-24T04:31:37.941Z,72119.41
2023-04-24T04:32:14.772Z,72115.44
2023-04-24T04:32:49.825Z,72119.41
2023-04-24T04:33:22.248Z,72123.41
2023-04-24T04:33:54.769Z,72117.41
2023-04-24T04:34:30.918Z,72115.44
2023-04-24T04:35:04.327Z,72119.41
2023-04-24T04:35:38.300Z,72123.41
2023-04-24T04:36:13.561Z,72125.41
2023-04-24T04:36:51.481Z,72119.41
2023-04-24T04:37:37.152Z,72123.41
2023-04-24T04:38:24.424Z,72119.41
2023-04-24T04:39:10.063Z,72123.41
2023-04-24T04:40:07.910Z,72123.41
2023-04-24T04:40:46.206Z,72123.41
2023-04-24T04:41:22.046Z,72115.44
2023-04-24T04:41:54.463Z,72125.41
2023-04-24T04:42:33.834Z,72123.41
2023-04-24T04:43:07.433Z,72119.41
2023-04-24T04:43:51.132Z,72115.44
2023-04-24T04:44:24.644Z,72119.41
2023-04-24T04:44:58.591Z,72125.41
2023-04-24T04:45:44.107Z,72127.41
2023-04-24T04:46:39.711Z,72119.41
2023-04-24T04:47:36.049Z,72131.38
2023-04-24T04:48:10.174Z,72125.41
2023-04-24T04:48:43.542Z,72127.41
2023-04-24T04:49:18.709Z,72119.41
2023-04-24T04:49:52.821Z,72127.41
2023-04-24T04:50:28.750Z,72125.41
2023-04-24T04:51:09.574Z,72119.41
2023-04-24T04:51:43.216Z,72123.41
2023-04-24T04:52:18.197Z,72131.38
2023-04-24T04:52:55.862Z,72123.41
2023-04-24T04:53:36.374Z,72127.41
2023-04-24T04:54:09.016Z,72119.41
2023-04-24T04:54:45.646Z,72125.41
2023-04-24T04:55:21.043Z,72129.41
2023-04-24T04:56:19.966Z,72127.41
2023-04-24T04:56:52.555Z,72123.41
2023-04-24T04:57:25.222Z,72123.41
2023-04-24T04:58:01.513Z,72125.41
2023-04-24T04:58:34.350Z,72121.41
2023-04-24T04:59:07.630Z,72123.41
2023-04-24T04:59:47.636Z,72129.41
2023-04-24T05:00:30.115Z,72133.38
2023-04-24T05:01:05.158Z,72135.38
2023-04-24T05:01:42.677Z,72139.38
2023-04-24T05:02:18.057Z,72139.38
2023-04-24T05:02:53.247Z,72129.41
2023-04-24T05:03:26.133Z,72139.38
2023-04-24T05:04:07.000Z,72143.38
2023-04-24T05:04:41.108Z,72139.38
2023-04-24T05:05:13.602Z,72143.38
2023-04-24T05:05:48.705Z,72137.38
2023-04-24T05:06:24.551Z,72139.38
2023-04-24T05:07:00.184Z,72139.38
2023-04-24T05:07:35.587Z,72143.38
2023-04-24T05:08:13.563Z,72143.38
2023-04-24T05:08:58.376Z,72137.38
2023-04-24T05:09:52.755Z,72143.38
2023-04-24T05:10:31.824Z,72139.38
2023-04-24T05:11:04.221Z,72139.38
2023-04-24T05:11:37.983Z,72147.34
2023-04-24T05:12:13.986Z,72145.34
2023-04-24T05:12:54.177Z,72147.34
2023-04-24T05:13:38.452Z,72139.38
2023-04-24T05:14:20.243Z,72143.38
2023-04-24T05:14:52.842Z,72155.34
2023-04-24T05:15:25.253Z,72147.34
2023-04-24T05:16:00.287Z,72157.34
2023-04-24T05:16:33.138Z,72155.34
2023-04-24T05:17:05.671Z,72161.31
2023-04-24T05:17:41.798Z,72163.31
2023-04-24T05:18:14.989Z,72155.34
2023-04-24T05:18:47.379Z,72159.31
2023-04-24T05:19:25.847Z,72159.31
2023-04-24T05:19:58.262Z,72157.34
2023-04-24T05:20:30.976Z,72159.31
2023-04-24T05:21:06.427Z,72161.31
2023-04-24T05:21:40.504Z,72163.31
2023-04-24T05:22:14.040Z,72163.31
2023-04-24T05:22:56.699Z,72163.31
2023-04-24T05:23:30.550Z,72171.31
2023-04-24T05:24:03.704Z,72167.31
2023-04-24T05:24:53.391Z,72167.31
2023-04-24T05:25:54.551Z,72167.31
2023-04-24T05:26:29.912Z,72169.31
2023-04-24T05:27:05.733Z,72171.31
2023-04-24T05:27:47.828Z,72173.28
2023-04-24T05:28:22.285Z,72167.31
2023-04-24T05:29:10.000Z,72173.28
2023-04-24T05:29:42.632Z,72171.31
2023-04-24T05:30:18.434Z,72171.31
2023-04-24T05:30:51.028Z,72167.31
2023-04-24T05:31:27.666Z,72171.31
2023-04-24T05:32:00.846Z,72167.31
2023-04-24T05:32:38.243Z,72167.31
2023-04-24T05:33:11.128Z,72173.28
2023-04-24T05:33:43.802Z,72169.31
2023-04-24T05:34:19.433Z,72171.31
2023-04-24T05:34:55.790Z,72175.28
2023-04-24T05:35:30.789Z,72171.31
2023-04-24T05:36:03.277Z,72171.31
2023-04-24T05:36:35.662Z,72177.28
2023-04-24T05:37:11.199Z,72171.31
2023-04-24T05:37:43.700Z,72167.31
2023-04-24T05:38:19.062Z,72177.28
2023-04-24T05:38:54.026Z,72177.28
2023-04-24T05:39:26.423Z,72169.31
2023-04-24T05:40:02.844Z,72171.31
2023-04-24T05:40:35.678Z,72175.28
2023-04-24T05:41:10.647Z,72181.28
2023-04-24T05:41:45.937Z,72175.28
2023-04-24T05:42:18.311Z,72171.31
2023-04-24T05:42:50.667Z,72173.28
2023-04-24T05:43:26.364Z,72171.31
2023-04-24T05:43:58.720Z,72169.31
2023-04-24T05:44:31.228Z,72171.31
2023-04-24T05:45:09.321Z,72175.28
2023-04-24T05:45:41.775Z,72167.31
2023-04-24T05:46:14.198Z,72175.28
2023-04-24T05:46:49.273Z,72171.31
2023-04-24T05:47:23.321Z,72175.28
2023-04-24T05:47:59.810Z,72179.28
2023-04-24T05:48:32.299Z,72171.31
2023-04-24T05:49:10.160Z,72175.28
2023-04-24T05:49:42.860Z,72179.28
2023-04-24T05:50:18.035Z,72175.28
2023-04-24T05:50:50.458Z,72173.28
2023-04-24T05:51:25.965Z,72171.31
2023-04-24T05:51:58.937Z,72173.28
2023-04-24T05:52:33.922Z,72179.28
2023-04-24T05:53:11.806Z,72175.28
2023-04-24T05:53:44.354Z,72167.31
2023-04-24T05:54:20.268Z,72171.31
2023-04-24T05:54:52.833Z,72175.28
2023-04-24T05:55:29.602Z,72171.31
2023-04-24T05:56:05.192Z,72175.28
2023-04-24T05:56:43.006Z,72175.28
2023-04-24T05:57:19.704Z,72173.28
2023-04-24T05:57:59.175Z,72171.31
2023-04-24T05:58:35.083Z,72179.28
2023-04-24T05:59:08.637Z,72171.31
2023-04-24T05:59:42.640Z,72167.31
2023-04-24T06:00:20.695Z,72173.28
2023-04-24T06:01:04.819Z,72171.31
2023-04-24T06:01:40.070Z,72173.28
2023-04-24T06:02:18.691Z,72175.28
2023-04-24T06:02:51.761Z,72175.28
2023-04-24T06:03:27.254Z,72175.28
2023-04-24T06:03:59.846Z,72171.31
2023-04-24T06:04:33.098Z,72167.31
2023-04-24T06:05:09.641Z,72175.28
2023-04-24T06:05:42.035Z,72175.28
2023-04-24T06:06:15.190Z,72179.28
2023-04-24T06:06:52.004Z,72175.28
2023-04-24T06:07:24.657Z,72171.31
2023-04-24T06:07:59.873Z,72175.28
2023-04-24T06:08:37.650Z,72179.28
2023-04-24T06:09:13.341Z,72175.28
2023-04-24T06:09:45.839Z,72179.28
2023-04-24T06:10:18.420Z,72179.28
2023-04-24T06:10:53.626Z,72177.28
2023-04-24T06:11:27.758Z,72175.28
2023-04-24T06:12:03.758Z,72177.28
2023-04-24T06:12:52.469Z,72171.31
2023-04-24T06:13:25.694Z,72171.31
2023-04-24T06:14:29.609Z,72175.28
2023-04-24T06:15:22.686Z,72175.28
2023-04-24T06:16:05.111Z,72187.28
2023-04-24T06:16:43.278Z,72179.28
2023-04-24T06:17:28.488Z,72181.28
2023-04-24T06:18:01.062Z,72187.28
2023-04-24T06:18:33.572Z,72177.28
2023-04-24T06:19:08.582Z,72179.28
2023-04-24T06:19:42.104Z,72177.28
2023-04-24T06:20:15.015Z,72171.31
2023-04-24T06:20:50.914Z,72167.31
2023-04-24T06:21:23.278Z,72187.28
2023-04-24T06:21:56.604Z,72177.28
2023-04-24T06:22:32.311Z,72181.28
2023-04-24T06:23:04.675Z,72179.28
2023-04-24T06:23:40.249Z,72175.28
2023-04-24T06:24:15.224Z,72175.28
2023-04-24T06:24:49.510Z,72179.28
2023-04-24T06:25:22.072Z,72179.28
2023-04-24T06:25:59.313Z,72175.28
2023-04-24T06:26:31.889Z,72179.28
2023-04-24T06:27:10.066Z,72181.28
2023-04-24T06:27:42.416Z,72177.28
2023-04-24T06:28:14.836Z,72171.31
2023-04-24T06:28:50.537Z,72177.28
2023-04-24T06:29:22.881Z,72173.28
2023-04-24T06:29:59.189Z,72183.28
2023-04-24T06:30:31.846Z,72181.28
2023-04-24T06:31:04.246Z,72187.28
2023-04-24T06:31:39.220Z,72189.25
2023-04-24T06:32:11.658Z,72191.25
2023-04-24T06:32:46.761Z,72191.25
2023-04-24T06:33:23.688Z,72195.25
2023-04-24T06:33:56.352Z,72191.25
2023-04-24T06:34:31.988Z,72195.25
2023-04-24T06:35:05.319Z,72197.25
2023-04-24T06:35:39.177Z,72199.25
2023-04-24T06:36:14.541Z,72191.25
2023-04-24T06:36:48.268Z,72191.25
2023-04-24T06:37:20.760Z,72197.25
2023-04-24T06:37:57.288Z,72191.25
2023-04-24T06:38:30.902Z,72187.28
2023-04-24T06:39:03.305Z,72199.25
2023-04-24T06:39:38.507Z,72191.25
2023-04-24T06:40:11.678Z,72203.22
2023-04-24T06:40:46.667Z,72195.25
2023-04-24T06:41:19.005Z,72191.25
2023-04-24T06:41:53.977Z,72193.25
2023-04-24T06:42:29.133Z,72199.25
2023-04-24T06:43:03.910Z,72203.22
2023-04-24T06:43:38.884Z,72201.25
2023-04-24T06:44:11.439Z,72199.25
2023-04-24T06:44:46.550Z,72207.22
2023-04-24T06:45:19.008Z,72207.22
2023-04-24T06:45:54.230Z,72199.25
2023-04-24T06:46:27.517Z,72201.25
2023-04-24T06:47:02.568Z,72211.22
2023-04-24T06:47:34.934Z,72211.22
2023-04-24T06:48:07.499Z,72215.22
2023-04-24T06:48:43.218Z,72215.22
2023-04-24T06:49:17.281Z,72213.22
2023-04-24T06:49:53.667Z,72211.22
2023-04-24T06:50:26.317Z,72213.22
2023-04-24T06:50:58.694Z,72215.22
2023-04-24T06:51:34.204Z,72209.22